Barracuda — 2CYZ6 — position and weather

sailwx.info

Track history (hours):
 
Tides and Currents Weather Stations Pressure Air Temp Water Temp Dewpoint Dewpoint Depression Visibility Wind Speed Wind Dir Waves Ship Positions

Barracuda

Last reported at 2018-May-04 22:44 UTC. Time now 2018-May-23 09:48 UTC.
Position N 36°49' W 076°17'.
Warning: this ship's position is 18 days out of date.

Length 14 m.

Type: Sailing vessel. MMSI: 235076956.

Date/timePositionNaut miles runAvg speedWind from/ knotsBaromVisibWave heightAir tempDewpointWater temp
2018-May-04 22:44N 36°49' W 076°17'1 5.8
2018-May-04 22:29N 36°48' W 076°18'1 2.1
2018-May-04 21:58N 36°46' W 076°18'0 0.4
2018-May-04 21:30N 36°46' W 076°18'1 0.4
2018-May-04 20:12N 36°46' W 076°18'  
2018-May-01 13:24N 34°50' W 076°41'3 6.8
2018-May-01 13:00N 34°48' W 076°41'3 6.2
2018-May-01 12:30N 34°45' W 076°41'2 3.9
2018-May-01 12:01N 34°43' W 076°42'0 0.0
2018-Apr-30 21:05N 34°43' W 076°42'0 0.0
2018-Apr-30 20:59N 34°43' W 076°42'0 0.0
2018-Apr-28 20:29N 34°43' W 076°42'1 2.4
2018-Apr-28 19:59N 34°42' W 076°41'0 0.0
2018-Apr-28 09:04N 34°42' W 076°41'0 0.1
2018-Apr-28 08:58N 34°42' W 076°41'0 0.0
2018-Apr-28 08:28N 34°42' W 076°41'0 0.0
2018-Apr-28 07:58N 34°42' W 076°41'1 2.7
2018-Apr-28 07:30N 34°42' W 076°40'3 5.0
2018-Apr-28 07:00N 34°39' W 076°41'3 5.5
2018-Apr-28 06:30N 34°36' W 076°41'  
Track history (hours):
 
Tides and Currents Weather Stations Pressure Air Temp Water Temp Dewpoint Dewpoint Depression Visibility Wind Speed Wind Dir Waves Ship Positions

Barracuda

Last reported at 2018-May-04 22:44 UTC. Time now 2018-May-23 09:48 UTC.
Position N 36°49' W 076°17'.
Warning: this ship's position is 18 days out of date.

Length 14 m.

Type: Sailing vessel. MMSI: 235076956.

Date/timePositionNaut miles runAvg speedWind from/ knotsBaromVisibWave heightAir tempDewpointWater temp
2018-May-04 22:44N 36°49' W 076°17'1 5.8
2018-May-04 22:29N 36°48' W 076°18'1 2.1
2018-May-04 21:58N 36°46' W 076°18'0 0.4
2018-May-04 21:30N 36°46' W 076°18'1 0.4
2018-May-04 20:12N 36°46' W 076°18'  
2018-May-01 13:24N 34°50' W 076°41'3 6.8
2018-May-01 13:00N 34°48' W 076°41'3 6.2
2018-May-01 12:30N 34°45' W 076°41'2 3.9
2018-May-01 12:01N 34°43' W 076°42'0 0.0
2018-Apr-30 21:05N 34°43' W 076°42'0 0.0
2018-Apr-30 20:59N 34°43' W 076°42'0 0.0
2018-Apr-28 20:29N 34°43' W 076°42'1 2.4
2018-Apr-28 19:59N 34°42' W 076°41'0 0.0
2018-Apr-28 09:04N 34°42' W 076°41'0 0.1
2018-Apr-28 08:58N 34°42' W 076°41'0 0.0
2018-Apr-28 08:28N 34°42' W 076°41'0 0.0
2018-Apr-28 07:58N 34°42' W 076°41'1 2.7
2018-Apr-28 07:30N 34°42' W 076°40'3 5.0
2018-Apr-28 07:00N 34°39' W 076°41'3 5.5
2018-Apr-28 06:30N 34°36' W 076°41'  

Dump ship's entire track history